Haverhill, New Hampshire
Current Conditions -  °F | °C
As of 1:15 PM on Monday 24 Nov 2014 (Local Time) from K1P1 Reporting Station
Haze Haze  
Wind Chill: 48°   Ceiling: 1100
Heat Index: 48°   Visibility: 1.7mi
Dew Point: 48°   Wind: 0mph
Humidity: 100%   Direction: NA
Pressure: 29.57"   Gusts: NA
Location:  44.03°N, 72.06°W
Report Text: K1P1 241815Z AUTO 00000KT 1 3/4SM BR SCT005 OVC011 09/09 A2957 RMK AO2 T00880088
Loading
Personal Weather Stations






























Interactive Weather Map New forecast layout! Learn more

10-Day Weather Forecast

Advertisements
Track Severe Weather on mobile